createdAt,value
2023-05-24T00:14:02.008Z,15.67
2023-05-24T00:59:59.907Z,15.19
2023-05-24T01:24:15.055Z,14.95
2023-05-24T01:50:32.401Z,14.37
2023-05-24T02:06:53.303Z,14.12
2023-05-24T02:21:56.171Z,14.08
2023-05-24T02:36:58.893Z,13.99
2023-05-24T02:59:24.417Z,13.87
2023-05-24T03:14:54.182Z,13.79
2023-05-24T03:30:01.172Z,13.69
2023-05-24T03:45:06.780Z,13.61
2023-05-24T04:12:09.514Z,13.63
2023-05-24T04:47:44.853Z,13.12
2023-05-24T05:03:15.423Z,12.81
2023-05-24T05:19:28.676Z,12.56
2023-05-24T05:53:47.397Z,12.89
2023-05-24T06:08:50.434Z,12.71
2023-05-24T06:24:05.079Z,12.56
2023-05-24T06:47:57.053Z,12.72
2023-05-24T07:02:59.874Z,12.80
2023-05-24T07:18:02.921Z,12.92
2023-05-24T07:33:05.605Z,13.01
2023-05-24T07:48:08.648Z,13.15
2023-05-24T08:03:13.976Z,13.27
2023-05-24T08:18:16.672Z,13.38
2023-05-24T08:33:19.257Z,13.55
2023-05-24T08:48:51.457Z,13.64
2023-05-24T09:03:55.882Z,13.88
2023-05-24T09:19:55.538Z,14.10
2023-05-24T09:35:29.156Z,14.32
2023-05-24T09:50:32.392Z,14.51
2023-05-24T10:22:52.727Z,14.69
2023-05-24T11:05:50.044Z,14.85
2023-05-24T11:29:27.401Z,14.79
2023-05-24T12:26:35.738Z,15.22
2023-05-24T12:59:19.063Z,15.29
2023-05-24T13:14:36.318Z,15.23
2023-05-24T13:45:29.757Z,15.46
2023-05-24T14:00:47.408Z,15.24
2023-05-24T14:15:50.349Z,15.15
2023-05-24T14:30:53.044Z,15.24
2023-05-24T14:46:10.225Z,15.22
2023-05-24T15:01:13.073Z,15.05
2023-05-24T15:17:06.636Z,14.88
2023-05-24T15:50:07.357Z,14.90
2023-05-24T16:05:10.471Z,14.84
2023-05-24T16:20:13.297Z,14.78
2023-05-24T16:35:30.801Z,14.69
2023-05-24T17:06:07.173Z,14.55
2023-05-24T17:21:10.821Z,14.45
2023-05-24T17:36:13.352Z,14.30
2023-05-24T17:51:19.027Z,14.11
2023-05-24T18:06:37.129Z,13.95
2023-05-24T18:22:22.537Z,13.88
2023-05-24T18:37:26.870Z,13.80
2023-05-24T19:08:24.511Z,13.69
2023-05-24T19:23:28.642Z,13.61
2023-05-24T19:38:31.948Z,13.57
2023-05-24T19:53:34.542Z,13.50
2023-05-24T20:27:51.081Z,13.45
2023-05-24T21:06:39.296Z,13.47
2023-05-24T21:32:08.249Z,13.50
2023-05-24T21:47:11.088Z,13.40
2023-05-24T22:02:13.889Z,13.38
2023-05-24T22:17:17.292Z,13.32
2023-05-24T22:36:39.527Z,13.33
2023-05-24T23:08:35.130Z,13.19
2023-05-24T23:23:54.039Z,13.19
2023-05-24T23:39:29.606Z,13.21
